sensor_id;sensor_type;location;lat;lon;timestamp;temperature;humidity
36990;DHT22;22898;52.102;5.776;2022-09-03T00:00:48;25.20;54.30
36990;DHT22;22898;52.102;5.776;2022-09-03T00:03:31;25.00;54.30
36990;DHT22;22898;52.102;5.776;2022-09-03T00:06:17;24.70;55.10
36990;DHT22;22898;52.102;5.776;2022-09-03T00:09:05;24.60;55.20
36990;DHT22;22898;52.102;5.776;2022-09-03T00:14:45;24.60;55.50
36990;DHT22;22898;52.102;5.776;2022-09-03T00:17:16;24.60;55.40
36990;DHT22;22898;52.102;5.776;2022-09-03T00:19:55;24.40;55.80
36990;DHT22;22898;52.102;5.776;2022-09-03T00:22:35;24.30;56.00
36990;DHT22;22898;52.102;5.776;2022-09-03T00:25:04;24.30;55.80
36990;DHT22;22898;52.102;5.776;2022-09-03T00:27:35;24.30;55.90
36990;DHT22;22898;52.102;5.776;2022-09-03T00:33:04;24.30;55.90
36990;DHT22;22898;52.102;5.776;2022-09-03T00:35:47;24.30;56.00
36990;DHT22;22898;52.102;5.776;2022-09-03T00:38:14;24.30;56.00
36990;DHT22;22898;52.102;5.776;2022-09-03T00:41:08;24.30;55.80
36990;DHT22;22898;52.102;5.776;2022-09-03T00:46:46;24.40;55.70
36990;DHT22;22898;52.102;5.776;2022-09-03T00:49:24;24.30;55.70
36990;DHT22;22898;52.102;5.776;2022-09-03T00:52:02;24.20;56.00
36990;DHT22;22898;52.102;5.776;2022-09-03T01:00:16;23.90;56.70
36990;DHT22;22898;52.102;5.776;2022-09-03T01:08:19;24.10;56.50
36990;DHT22;22898;52.102;5.776;2022-09-03T01:16:31;24.00;56.60
36990;DHT22;22898;52.102;5.776;2022-09-03T01:25:11;23.90;56.50
36990;DHT22;22898;52.102;5.776;2022-09-03T01:30:26;24.00;56.50
36990;DHT22;22898;52.102;5.776;2022-09-03T01:35:43;23.80;56.80
36990;DHT22;22898;52.102;5.776;2022-09-03T01:44:20;23.60;57.30
36990;DHT22;22898;52.102;5.776;2022-09-03T01:46:59;23.60;57.40
36990;DHT22;22898;52.102;5.776;2022-09-03T01:49:55;23.60;57.30
36990;DHT22;22898;52.102;5.776;2022-09-03T01:55:17;23.70;57.10
36990;DHT22;22898;52.102;5.776;2022-09-03T02:00:24;23.90;56.80
36990;DHT22;22898;52.102;5.776;2022-09-03T02:02:51;23.90;56.80
36990;DHT22;22898;52.102;5.776;2022-09-03T02:05:20;23.80;56.80
36990;DHT22;22898;52.102;5.776;2022-09-03T02:07:55;23.70;57.30
36990;DHT22;22898;52.102;5.776;2022-09-03T02:10:25;23.60;57.40
36990;DHT22;22898;52.102;5.776;2022-09-03T02:12:58;23.50;57.60
36990;DHT22;22898;52.102;5.776;2022-09-03T02:15:26;23.40;57.80
36990;DHT22;22898;52.102;5.776;2022-09-03T02:17:54;23.40;57.90
36990;DHT22;22898;52.102;5.776;2022-09-03T02:20:24;23.50;57.40
36990;DHT22;22898;52.102;5.776;2022-09-03T02:22:51;23.60;57.50
36990;DHT22;22898;52.102;5.776;2022-09-03T02:25:19;23.50;57.90
36990;DHT22;22898;52.102;5.776;2022-09-03T02:27:47;23.60;57.50
36990;DHT22;22898;52.102;5.776;2022-09-03T02:30:13;23.60;57.50
36990;DHT22;22898;52.102;5.776;2022-09-03T02:32:39;23.50;58.20
36990;DHT22;22898;52.102;5.776;2022-09-03T02:35:05;23.40;57.70
36990;DHT22;22898;52.102;5.776;2022-09-03T02:37:31;23.30;58.10
36990;DHT22;22898;52.102;5.776;2022-09-03T02:39:56;23.20;58.20
36990;DHT22;22898;52.102;5.776;2022-09-03T02:42:22;23.20;58.20
36990;DHT22;22898;52.102;5.776;2022-09-03T02:45:04;23.10;58.40
36990;DHT22;22898;52.102;5.776;2022-09-03T02:47:33;23.00;58.70
36990;DHT22;22898;52.102;5.776;2022-09-03T02:50:00;23.00;58.60
36990;DHT22;22898;52.102;5.776;2022-09-03T02:52:26;23.00;58.60
36990;DHT22;22898;52.102;5.776;2022-09-03T02:54:51;23.10;58.30
36990;DHT22;22898;52.102;5.776;2022-09-03T02:57:17;23.10;58.30
36990;DHT22;22898;52.102;5.776;2022-09-03T02:59:43;23.00;58.40
36990;DHT22;22898;52.102;5.776;2022-09-03T03:02:10;23.00;58.50
36990;DHT22;22898;52.102;5.776;2022-09-03T03:04:36;22.90;58.60
36990;DHT22;22898;52.102;5.776;2022-09-03T03:07:03;22.80;59.10
36990;DHT22;22898;52.102;5.776;2022-09-03T03:09:28;22.80;59.00
36990;DHT22;22898;52.102;5.776;2022-09-03T03:11:54;22.80;59.00
36990;DHT22;22898;52.102;5.776;2022-09-03T03:14:20;23.00;58.90
36990;DHT22;22898;52.102;5.776;2022-09-03T03:16:47;22.90;58.70
36990;DHT22;22898;52.102;5.776;2022-09-03T03:19:13;22.90;58.60
36990;DHT22;22898;52.102;5.776;2022-09-03T03:21:38;22.90;58.70
36990;DHT22;22898;52.102;5.776;2022-09-03T03:24:04;22.90;58.60
36990;DHT22;22898;52.102;5.776;2022-09-03T03:26:31;22.80;58.90
36990;DHT22;22898;52.102;5.776;2022-09-03T03:28:58;22.80;58.80
36990;DHT22;22898;52.102;5.776;2022-09-03T03:31:25;22.80;58.70
36990;DHT22;22898;52.102;5.776;2022-09-03T03:33:57;22.90;58.70
36990;DHT22;22898;52.102;5.776;2022-09-03T03:36:25;22.90;58.80
36990;DHT22;22898;52.102;5.776;2022-09-03T03:38:56;23.00;58.50
36990;DHT22;22898;52.102;5.776;2022-09-03T03:41:24;22.90;58.40
36990;DHT22;22898;52.102;5.776;2022-09-03T03:43:59;22.90;58.60
36990;DHT22;22898;52.102;5.776;2022-09-03T03:46:29;22.90;58.70
36990;DHT22;22898;52.102;5.776;2022-09-03T03:48:55;22.90;58.70
36990;DHT22;22898;52.102;5.776;2022-09-03T03:51:20;22.90;58.60
36990;DHT22;22898;52.102;5.776;2022-09-03T03:53:46;22.90;58.60
36990;DHT22;22898;52.102;5.776;2022-09-03T03:56:13;22.80;58.60
36990;DHT22;22898;52.102;5.776;2022-09-03T03:58:41;22.80;58.70
36990;DHT22;22898;52.102;5.776;2022-09-03T04:01:14;22.80;58.90
36990;DHT22;22898;52.102;5.776;2022-09-03T04:03:40;23.00;58.60
36990;DHT22;22898;52.102;5.776;2022-09-03T04:06:07;23.00;58.60
36990;DHT22;22898;52.102;5.776;2022-09-03T04:08:38;23.00;58.60
36990;DHT22;22898;52.102;5.776;2022-09-03T04:11:06;23.00;58.80
36990;DHT22;22898;52.102;5.776;2022-09-03T04:13:37;23.00;59.10
36990;DHT22;22898;52.102;5.776;2022-09-03T04:16:05;22.90;58.70
36990;DHT22;22898;52.102;5.776;2022-09-03T04:18:31;22.90;58.40
36990;DHT22;22898;52.102;5.776;2022-09-03T04:20:59;22.90;58.50
36990;DHT22;22898;52.102;5.776;2022-09-03T04:23:29;22.90;58.60
36990;DHT22;22898;52.102;5.776;2022-09-03T04:25:54;22.90;58.80
36990;DHT22;22898;52.102;5.776;2022-09-03T04:28:20;22.90;58.80
36990;DHT22;22898;52.102;5.776;2022-09-03T04:30:46;23.00;58.50
36990;DHT22;22898;52.102;5.776;2022-09-03T04:33:12;23.10;58.80
36990;DHT22;22898;52.102;5.776;2022-09-03T04:35:37;23.00;58.50
36990;DHT22;22898;52.102;5.776;2022-09-03T04:38:05;23.00;58.40
36990;DHT22;22898;52.102;5.776;2022-09-03T04:40:31;23.00;58.50
36990;DHT22;22898;52.102;5.776;2022-09-03T04:42:57;23.00;58.50
36990;DHT22;22898;52.102;5.776;2022-09-03T04:45:26;22.90;58.80
36990;DHT22;22898;52.102;5.776;2022-09-03T04:48:03;22.80;58.80
36990;DHT22;22898;52.102;5.776;2022-09-03T04:50:31;23.00;58.50
36990;DHT22;22898;52.102;5.776;2022-09-03T04:53:02;23.00;58.40
36990;DHT22;22898;52.102;5.776;2022-09-03T04:55:35;23.00;58.40
36990;DHT22;22898;52.102;5.776;2022-09-03T04:58:01;23.00;58.50
36990;DHT22;22898;52.102;5.776;2022-09-03T05:00:27;23.10;58.10
36990;DHT22;22898;52.102;5.776;2022-09-03T05:02:53;23.00;58.10
36990;DHT22;22898;52.102;5.776;2022-09-03T05:05:19;22.70;58.90
36990;DHT22;22898;52.102;5.776;2022-09-03T05:07:45;22.60;59.20
36990;DHT22;22898;52.102;5.776;2022-09-03T05:10:12;22.50;59.30
36990;DHT22;22898;52.102;5.776;2022-09-03T05:12:40;22.60;59.20
36990;DHT22;22898;52.102;5.776;2022-09-03T05:15:06;22.70;58.90
36990;DHT22;22898;52.102;5.776;2022-09-03T05:17:32;22.80;58.80
36990;DHT22;22898;52.102;5.776;2022-09-03T05:19:57;22.80;58.90
36990;DHT22;22898;52.102;5.776;2022-09-03T05:22:23;22.70;59.10
36990;DHT22;22898;52.102;5.776;2022-09-03T05:24:49;22.70;59.00
36990;DHT22;22898;52.102;5.776;2022-09-03T05:27:15;22.80;58.70
36990;DHT22;22898;52.102;5.776;2022-09-03T05:29:44;22.80;58.60
36990;DHT22;22898;52.102;5.776;2022-09-03T05:32:11;22.70;59.10
36990;DHT22;22898;52.102;5.776;2022-09-03T05:34:37;22.80;59.00
36990;DHT22;22898;52.102;5.776;2022-09-03T05:37:03;22.90;58.80
36990;DHT22;22898;52.102;5.776;2022-09-03T05:39:29;22.90;58.90
36990;DHT22;22898;52.102;5.776;2022-09-03T05:41:54;22.90;58.80
36990;DHT22;22898;52.102;5.776;2022-09-03T05:44:20;22.90;59.10
36990;DHT22;22898;52.102;5.776;2022-09-03T05:46:47;23.00;59.00
36990;DHT22;22898;52.102;5.776;2022-09-03T05:49:13;22.90;59.00
36990;DHT22;22898;52.102;5.776;2022-09-03T05:51:38;23.00;59.10
36990;DHT22;22898;52.102;5.776;2022-09-03T05:54:04;23.00;58.80
36990;DHT22;22898;52.102;5.776;2022-09-03T05:56:32;22.90;58.90
36990;DHT22;22898;52.102;5.776;2022-09-03T05:59:01;22.90;59.20
36990;DHT22;22898;52.102;5.776;2022-09-03T06:01:35;23.00;58.80
36990;DHT22;22898;52.102;5.776;2022-09-03T06:04:02;23.10;58.90
36990;DHT22;22898;52.102;5.776;2022-09-03T06:06:30;23.10;58.80
36990;DHT22;22898;52.102;5.776;2022-09-03T06:09:00;23.20;59.00
36990;DHT22;22898;52.102;5.776;2022-09-03T06:11:28;23.10;59.00
36990;DHT22;22898;52.102;5.776;2022-09-03T06:13:57;23.10;59.10
36990;DHT22;22898;52.102;5.776;2022-09-03T06:16:26;23.20;58.90
36990;DHT22;22898;52.102;5.776;2022-09-03T06:18:51;23.30;58.90
36990;DHT22;22898;52.102;5.776;2022-09-03T06:21:17;23.40;58.70
36990;DHT22;22898;52.102;5.776;2022-09-03T06:23:48;23.60;58.40
36990;DHT22;22898;52.102;5.776;2022-09-03T06:26:16;23.60;58.10
36990;DHT22;22898;52.102;5.776;2022-09-03T06:28:42;23.70;58.20
36990;DHT22;22898;52.102;5.776;2022-09-03T06:31:11;23.60;58.40
36990;DHT22;22898;52.102;5.776;2022-09-03T06:33:38;23.70;58.50
36990;DHT22;22898;52.102;5.776;2022-09-03T06:36:06;23.40;58.50
36990;DHT22;22898;52.102;5.776;2022-09-03T06:38:33;23.40;58.60
36990;DHT22;22898;52.102;5.776;2022-09-03T06:41:13;23.60;58.70
36990;DHT22;22898;52.102;5.776;2022-09-03T06:43:40;23.60;58.40
36990;DHT22;22898;52.102;5.776;2022-09-03T06:46:33;23.70;58.20
36990;DHT22;22898;52.102;5.776;2022-09-03T06:48:59;23.60;58.40
36990;DHT22;22898;52.102;5.776;2022-09-03T06:51:27;23.50;59.00
36990;DHT22;22898;52.102;5.776;2022-09-03T06:54:02;23.50;58.80
36990;DHT22;22898;52.102;5.776;2022-09-03T06:56:28;23.60;58.80
36990;DHT22;22898;52.102;5.776;2022-09-03T06:58:56;23.60;58.60
36990;DHT22;22898;52.102;5.776;2022-09-03T07:01:27;23.60;58.80
36990;DHT22;22898;52.102;5.776;2022-09-03T07:03:57;23.60;58.50
36990;DHT22;22898;52.102;5.776;2022-09-03T07:06:27;23.80;58.30
36990;DHT22;22898;52.102;5.776;2022-09-03T07:08:53;24.00;58.10
36990;DHT22;22898;52.102;5.776;2022-09-03T07:11:20;24.00;57.80
36990;DHT22;22898;52.102;5.776;2022-09-03T07:13:49;24.10;57.70
36990;DHT22;22898;52.102;5.776;2022-09-03T07:16:18;24.10;57.30
36990;DHT22;22898;52.102;5.776;2022-09-03T07:18:44;24.10;57.80
36990;DHT22;22898;52.102;5.776;2022-09-03T07:21:13;24.30;57.90
36990;DHT22;22898;52.102;5.776;2022-09-03T07:23:39;24.60;57.20
36990;DHT22;22898;52.102;5.776;2022-09-03T07:26:08;24.70;56.70
36990;DHT22;22898;52.102;5.776;2022-09-03T07:28:36;24.70;56.80
36990;DHT22;22898;52.102;5.776;2022-09-03T07:31:08;24.70;56.80
36990;DHT22;22898;52.102;5.776;2022-09-03T07:33:36;24.80;57.10
36990;DHT22;22898;52.102;5.776;2022-09-03T07:36:08;24.90;56.60
36990;DHT22;22898;52.102;5.776;2022-09-03T07:38:35;24.90;56.90
36990;DHT22;22898;52.102;5.776;2022-09-03T07:41:03;25.00;56.60
36990;DHT22;22898;52.102;5.776;2022-09-03T07:43:36;25.20;56.40
36990;DHT22;22898;52.102;5.776;2022-09-03T07:46:06;25.40;56.20
36990;DHT22;22898;52.102;5.776;2022-09-03T07:48:32;25.40;56.20
36990;DHT22;22898;52.102;5.776;2022-09-03T07:50:59;25.60;56.20
36990;DHT22;22898;52.102;5.776;2022-09-03T07:53:28;25.80;55.30
36990;DHT22;22898;52.102;5.776;2022-09-03T07:56:00;25.70;55.60
36990;DHT22;22898;52.102;5.776;2022-09-03T07:58:28;25.70;55.50
36990;DHT22;22898;52.102;5.776;2022-09-03T08:00:55;25.80;55.40
36990;DHT22;22898;52.102;5.776;2022-09-03T08:03:21;25.90;54.90
36990;DHT22;22898;52.102;5.776;2022-09-03T08:05:47;26.10;55.10
36990;DHT22;22898;52.102;5.776;2022-09-03T08:08:12;26.20;54.80
36990;DHT22;22898;52.102;5.776;2022-09-03T08:10:39;26.30;54.50
36990;DHT22;22898;52.102;5.776;2022-09-03T08:13:05;26.70;54.50
36990;DHT22;22898;52.102;5.776;2022-09-03T08:15:31;26.80;54.00
36990;DHT22;22898;52.102;5.776;2022-09-03T08:17:58;26.90;54.00
36990;DHT22;22898;52.102;5.776;2022-09-03T08:20:25;27.00;53.70
36990;DHT22;22898;52.102;5.776;2022-09-03T08:22:52;27.00;53.80
36990;DHT22;22898;52.102;5.776;2022-09-03T08:25:17;27.10;53.70
36990;DHT22;22898;52.102;5.776;2022-09-03T08:27:43;27.30;53.30
36990;DHT22;22898;52.102;5.776;2022-09-03T08:30:09;27.60;53.00
36990;DHT22;22898;52.102;5.776;2022-09-03T08:32:38;27.90;52.70
36990;DHT22;22898;52.102;5.776;2022-09-03T08:35:05;28.00;52.10
36990;DHT22;22898;52.102;5.776;2022-09-03T08:37:31;28.00;51.80
36990;DHT22;22898;52.102;5.776;2022-09-03T08:39:57;28.00;52.20
36990;DHT22;22898;52.102;5.776;2022-09-03T08:42:27;28.00;52.00
36990;DHT22;22898;52.102;5.776;2022-09-03T08:45:05;28.00;51.80
36990;DHT22;22898;52.102;5.776;2022-09-03T08:47:39;28.10;51.90
36990;DHT22;22898;52.102;5.776;2022-09-03T08:50:25;28.20;51.90
36990;DHT22;22898;52.102;5.776;2022-09-03T09:01:15;28.40;51.70
36990;DHT22;22898;52.102;5.776;2022-09-03T09:03:50;28.70;50.90
36990;DHT22;22898;52.102;5.776;2022-09-03T09:09:32;28.70;51.40
36990;DHT22;22898;52.102;5.776;2022-09-03T09:12:20;28.90;50.80
36990;DHT22;22898;52.102;5.776;2022-09-03T09:15:08;28.80;51.00
36990;DHT22;22898;52.102;5.776;2022-09-03T09:17:52;28.80;51.50
36990;DHT22;22898;52.102;5.776;2022-09-03T09:20:41;28.90;51.20
36990;DHT22;22898;52.102;5.776;2022-09-03T09:23:13;28.90;50.90
36990;DHT22;22898;52.102;5.776;2022-09-03T09:25:47;28.90;50.80
36990;DHT22;22898;52.102;5.776;2022-09-03T09:28:17;28.90;51.60
36990;DHT22;22898;52.102;5.776;2022-09-03T09:30:46;29.10;50.90
36990;DHT22;22898;52.102;5.776;2022-09-03T09:33:16;29.20;50.40
36990;DHT22;22898;52.102;5.776;2022-09-03T09:35:43;29.00;50.80
36990;DHT22;22898;52.102;5.776;2022-09-03T09:38:09;29.00;50.90
36990;DHT22;22898;52.102;5.776;2022-09-03T09:40:38;29.20;50.70
36990;DHT22;22898;52.102;5.776;2022-09-03T09:43:14;29.30;50.60
36990;DHT22;22898;52.102;5.776;2022-09-03T09:45:43;29.50;50.50
36990;DHT22;22898;52.102;5.776;2022-09-03T09:48:25;29.50;50.00
36990;DHT22;22898;52.102;5.776;2022-09-03T09:51:10;29.50;50.40
36990;DHT22;22898;52.102;5.776;2022-09-03T09:53:36;29.50;50.10
36990;DHT22;22898;52.102;5.776;2022-09-03T09:56:02;29.50;50.00
36990;DHT22;22898;52.102;5.776;2022-09-03T09:58:28;29.50;50.10
36990;DHT22;22898;52.102;5.776;2022-09-03T10:01:20;29.60;49.50
36990;DHT22;22898;52.102;5.776;2022-09-03T10:03:58;29.70;49.40
36990;DHT22;22898;52.102;5.776;2022-09-03T10:06:29;29.50;49.50
36990;DHT22;22898;52.102;5.776;2022-09-03T10:09:16;29.50;49.80
36990;DHT22;22898;52.102;5.776;2022-09-03T10:11:48;29.60;49.50
36990;DHT22;22898;52.102;5.776;2022-09-03T10:14:23;29.70;49.70
36990;DHT22;22898;52.102;5.776;2022-09-03T10:17:03;29.90;49.70
36990;DHT22;22898;52.102;5.776;2022-09-03T10:19:45;30.00;49.10
36990;DHT22;22898;52.102;5.776;2022-09-03T10:22:39;30.10;49.60
36990;DHT22;22898;52.102;5.776;2022-09-03T10:25:09;30.40;49.10
36990;DHT22;22898;52.102;5.776;2022-09-03T10:27:35;30.50;48.90
36990;DHT22;22898;52.102;5.776;2022-09-03T10:30:01;30.30;48.50
36990;DHT22;22898;52.102;5.776;2022-09-03T10:35:42;30.80;48.50
36990;DHT22;22898;52.102;5.776;2022-09-03T10:38:28;31.00;48.20
36990;DHT22;22898;52.102;5.776;2022-09-03T10:41:16;31.00;49.00
36990;DHT22;22898;52.102;5.776;2022-09-03T10:43:56;31.00;48.40
36990;DHT22;22898;52.102;5.776;2022-09-03T10:46:28;30.90;48.30
36990;DHT22;22898;52.102;5.776;2022-09-03T10:52:26;30.50;48.40
36990;DHT22;22898;52.102;5.776;2022-09-03T10:57:54;30.50;48.30
36990;DHT22;22898;52.102;5.776;2022-09-03T11:00:24;30.60;48.40
36990;DHT22;22898;52.102;5.776;2022-09-03T11:08:36;31.20;47.80
36990;DHT22;22898;52.102;5.776;2022-09-03T11:11:34;31.30;47.20
36990;DHT22;22898;52.102;5.776;2022-09-03T11:14:08;31.50;47.40
36990;DHT22;22898;52.102;5.776;2022-09-03T11:19:12;31.60;47.30
36990;DHT22;22898;52.102;5.776;2022-09-03T11:21:40;31.80;46.70
36990;DHT22;22898;52.102;5.776;2022-09-03T11:24:11;31.80;47.20
36990;DHT22;22898;52.102;5.776;2022-09-03T11:26:39;32.00;46.80
36990;DHT22;22898;52.102;5.776;2022-09-03T11:34:26;32.10;46.80
36990;DHT22;22898;52.102;5.776;2022-09-03T11:37:03;32.10;46.30
36990;DHT22;22898;52.102;5.776;2022-09-03T11:42:02;31.80;46.50
36990;DHT22;22898;52.102;5.776;2022-09-03T11:44:44;31.60;46.30
36990;DHT22;22898;52.102;5.776;2022-09-03T11:47:22;31.60;46.50
36990;DHT22;22898;52.102;5.776;2022-09-03T11:49:52;31.80;46.40
36990;DHT22;22898;52.102;5.776;2022-09-03T11:52:30;31.80;46.60
36990;DHT22;22898;52.102;5.776;2022-09-03T11:54:57;31.80;45.60
36990;DHT22;22898;52.102;5.776;2022-09-03T11:57:28;31.80;46.20
36990;DHT22;22898;52.102;5.776;2022-09-03T12:00:07;31.90;46.20
36990;DHT22;22898;52.102;5.776;2022-09-03T12:02:35;32.10;46.40
36990;DHT22;22898;52.102;5.776;2022-09-03T12:05:15;32.10;46.20
36990;DHT22;22898;52.102;5.776;2022-09-03T12:13:28;32.70;45.00
36990;DHT22;22898;52.102;5.776;2022-09-03T12:16:21;32.50;44.70
36990;DHT22;22898;52.102;5.776;2022-09-03T12:18:50;32.60;45.30
36990;DHT22;22898;52.102;5.776;2022-09-03T12:21:19;32.60;44.50
36990;DHT22;22898;52.102;5.776;2022-09-03T12:23:52;32.40;44.70
36990;DHT22;22898;52.102;5.776;2022-09-03T12:26:23;32.50;45.00
36990;DHT22;22898;52.102;5.776;2022-09-03T12:28:56;32.70;45.20
36990;DHT22;22898;52.102;5.776;2022-09-03T12:31:24;32.80;44.70
36990;DHT22;22898;52.102;5.776;2022-09-03T12:34:00;32.80;45.00
36990;DHT22;22898;52.102;5.776;2022-09-03T12:36:48;32.80;45.40
36990;DHT22;22898;52.102;5.776;2022-09-03T12:44:38;33.50;44.30
36990;DHT22;22898;52.102;5.776;2022-09-03T12:49:35;33.50;44.30
36990;DHT22;22898;52.102;5.776;2022-09-03T12:52:08;33.30;44.20
36990;DHT22;22898;52.102;5.776;2022-09-03T12:54:41;33.40;44.60
36990;DHT22;22898;52.102;5.776;2022-09-03T12:57:08;33.50;44.10
36990;DHT22;22898;52.102;5.776;2022-09-03T12:59:35;33.40;44.10
36990;DHT22;22898;52.102;5.776;2022-09-03T13:02:11;33.20;44.20
36990;DHT22;22898;52.102;5.776;2022-09-03T13:04:38;33.40;44.60
36990;DHT22;22898;52.102;5.776;2022-09-03T13:07:10;33.60;44.60
36990;DHT22;22898;52.102;5.776;2022-09-03T13:09:38;33.50;44.60
36990;DHT22;22898;52.102;5.776;2022-09-03T13:12:05;33.60;44.40
36990;DHT22;22898;52.102;5.776;2022-09-03T13:14:46;33.50;44.90
36990;DHT22;22898;52.102;5.776;2022-09-03T13:20:32;33.60;43.90
36990;DHT22;22898;52.102;5.776;2022-09-03T13:26:17;34.10;44.00
36990;DHT22;22898;52.102;5.776;2022-09-03T13:29:17;34.10;44.00
36990;DHT22;22898;52.102;5.776;2022-09-03T13:31:51;33.70;44.30
36990;DHT22;22898;52.102;5.776;2022-09-03T13:34:24;33.40;44.10
36990;DHT22;22898;52.102;5.776;2022-09-03T13:37:20;33.50;44.60
36990;DHT22;22898;52.102;5.776;2022-09-03T13:39:53;33.50;44.90
36990;DHT22;22898;52.102;5.776;2022-09-03T13:42:43;33.40;44.50
36990;DHT22;22898;52.102;5.776;2022-09-03T13:45:38;33.30;45.00
36990;DHT22;22898;52.102;5.776;2022-09-03T13:48:27;33.40;45.20
36990;DHT22;22898;52.102;5.776;2022-09-03T13:51:18;33.60;45.00
36990;DHT22;22898;52.102;5.776;2022-09-03T13:54:13;33.70;45.00
36990;DHT22;22898;52.102;5.776;2022-09-03T13:56:59;33.90;44.80
36990;DHT22;22898;52.102;5.776;2022-09-03T13:59:51;34.20;45.00
36990;DHT22;22898;52.102;5.776;2022-09-03T14:02:27;34.20;44.50
36990;DHT22;22898;52.102;5.776;2022-09-03T14:10:34;33.80;45.00
36990;DHT22;22898;52.102;5.776;2022-09-03T14:13:27;34.00;45.00
36990;DHT22;22898;52.102;5.776;2022-09-03T14:19:02;34.50;44.50
36990;DHT22;22898;52.102;5.776;2022-09-03T14:21:53;34.50;44.30
36990;DHT22;22898;52.102;5.776;2022-09-03T14:24:21;34.50;44.40
36990;DHT22;22898;52.102;5.776;2022-09-03T14:26:56;34.50;44.20
36990;DHT22;22898;52.102;5.776;2022-09-03T14:29:31;34.40;43.90
36990;DHT22;22898;52.102;5.776;2022-09-03T14:37:33;35.00;43.70
36990;DHT22;22898;52.102;5.776;2022-09-03T14:40:12;35.00;43.50
36990;DHT22;22898;52.102;5.776;2022-09-03T14:54:07;34.30;44.30
36990;DHT22;22898;52.102;5.776;2022-09-03T14:57:16;34.60;43.90
36990;DHT22;22898;52.102;5.776;2022-09-03T14:59:54;34.60;43.60
36990;DHT22;22898;52.102;5.776;2022-09-03T15:02:53;34.70;43.70
36990;DHT22;22898;52.102;5.776;2022-09-03T15:05:44;34.50;43.70
36990;DHT22;22898;52.102;5.776;2022-09-03T15:08:37;34.20;43.40
36990;DHT22;22898;52.102;5.776;2022-09-03T15:11:14;34.20;43.80
36990;DHT22;22898;52.102;5.776;2022-09-03T15:13:51;34.20;43.40
36990;DHT22;22898;52.102;5.776;2022-09-03T15:22:03;34.80;43.40
36990;DHT22;22898;52.102;5.776;2022-09-03T15:25:03;35.00;43.30
36990;DHT22;22898;52.102;5.776;2022-09-03T15:27:41;35.20;43.50
36990;DHT22;22898;52.102;5.776;2022-09-03T15:30:11;35.00;43.30
36990;DHT22;22898;52.102;5.776;2022-09-03T15:35:32;34.80;43.60
36990;DHT22;22898;52.102;5.776;2022-09-03T15:38:09;34.70;43.80
36990;DHT22;22898;52.102;5.776;2022-09-03T15:40:54;34.60;44.00
36990;DHT22;22898;52.102;5.776;2022-09-03T15:43:27;34.60;44.30
36990;DHT22;22898;52.102;5.776;2022-09-03T15:45:57;34.60;44.30
36990;DHT22;22898;52.102;5.776;2022-09-03T15:51:17;34.40;44.50
36990;DHT22;22898;52.102;5.776;2022-09-03T16:02:00;34.60;44.30
36990;DHT22;22898;52.102;5.776;2022-09-03T16:12:46;34.70;44.50
36990;DHT22;22898;52.102;5.776;2022-09-03T16:15:26;34.50;43.80
36990;DHT22;22898;52.102;5.776;2022-09-03T16:18:05;34.60;43.60
36990;DHT22;22898;52.102;5.776;2022-09-03T16:20:42;34.50;44.00
36990;DHT22;22898;52.102;5.776;2022-09-03T16:23:18;34.60;43.90
36990;DHT22;22898;52.102;5.776;2022-09-03T16:25:56;34.70;43.90
36990;DHT22;22898;52.102;5.776;2022-09-03T16:28:45;34.70;42.80
36990;DHT22;22898;52.102;5.776;2022-09-03T16:31:50;34.70;43.10
36990;DHT22;22898;52.102;5.776;2022-09-03T16:34:47;34.70;44.10
36990;DHT22;22898;52.102;5.776;2022-09-03T16:40:21;34.80;44.20
36990;DHT22;22898;52.102;5.776;2022-09-03T16:51:13;36.40;42.10
36990;DHT22;22898;52.102;5.776;2022-09-03T16:54:11;36.20;42.20
36990;DHT22;22898;52.102;5.776;2022-09-03T17:08:23;35.00;43.90
36990;DHT22;22898;52.102;5.776;2022-09-03T17:11:31;34.90;44.00
36990;DHT22;22898;52.102;5.776;2022-09-03T17:17:25;34.20;44.80
36990;DHT22;22898;52.102;5.776;2022-09-03T17:25:28;34.00;45.50
36990;DHT22;22898;52.102;5.776;2022-09-03T17:28:14;33.80;45.90
36990;DHT22;22898;52.102;5.776;2022-09-03T17:49:59;33.30;46.50
36990;DHT22;22898;52.102;5.776;2022-09-03T17:53:09;33.10;46.90
36990;DHT22;22898;52.102;5.776;2022-09-03T17:55:41;33.00;47.40
36990;DHT22;22898;52.102;5.776;2022-09-03T17:58:15;32.90;47.30
36990;DHT22;22898;52.102;5.776;2022-09-03T18:03:29;32.90;47.60
36990;DHT22;22898;52.102;5.776;2022-09-03T18:06:00;32.90;47.60
36990;DHT22;22898;52.102;5.776;2022-09-03T18:14:27;32.70;48.20
36990;DHT22;22898;52.102;5.776;2022-09-03T18:19:35;32.50;49.10
36990;DHT22;22898;52.102;5.776;2022-09-03T18:22:27;32.30;49.30
36990;DHT22;22898;52.102;5.776;2022-09-03T18:25:14;32.30;49.50
36990;DHT22;22898;52.102;5.776;2022-09-03T18:28:04;32.20;50.00
36990;DHT22;22898;52.102;5.776;2022-09-03T18:30:50;32.00;50.00
36990;DHT22;22898;52.102;5.776;2022-09-03T18:33:34;31.90;50.00
36990;DHT22;22898;52.102;5.776;2022-09-03T18:36:19;31.80;50.40
36990;DHT22;22898;52.102;5.776;2022-09-03T18:39:26;31.50;50.90
36990;DHT22;22898;52.102;5.776;2022-09-03T18:45:50;31.30;51.60
36990;DHT22;22898;52.102;5.776;2022-09-03T18:49:02;31.20;51.90
36990;DHT22;22898;52.102;5.776;2022-09-03T18:51:59;31.10;52.00
36990;DHT22;22898;52.102;5.776;2022-09-03T19:00:42;30.90;52.30
36990;DHT22;22898;52.102;5.776;2022-09-03T19:07:07;30.60;52.80
36990;DHT22;22898;52.102;5.776;2022-09-03T19:13:00;30.40;53.70
36990;DHT22;22898;52.102;5.776;2022-09-03T19:15:58;30.30;53.90
36990;DHT22;22898;52.102;5.776;2022-09-03T19:22:07;30.10;54.30
36990;DHT22;22898;52.102;5.776;2022-09-03T19:25:04;30.00;54.00
36990;DHT22;22898;52.102;5.776;2022-09-03T19:31:01;29.80;54.30
36990;DHT22;22898;52.102;5.776;2022-09-03T19:39:53;29.30;55.40
36990;DHT22;22898;52.102;5.776;2022-09-03T19:45:45;29.20;55.50
36990;DHT22;22898;52.102;5.776;2022-09-03T19:48:46;29.10;55.20
36990;DHT22;22898;52.102;5.776;2022-09-03T19:54:39;28.90;56.10
36990;DHT22;22898;52.102;5.776;2022-09-03T19:57:25;28.80;56.10
36990;DHT22;22898;52.102;5.776;2022-09-03T20:00:10;28.70;56.30
36990;DHT22;22898;52.102;5.776;2022-09-03T20:02:55;28.70;56.10
36990;DHT22;22898;52.102;5.776;2022-09-03T20:05:42;28.50;56.70
36990;DHT22;22898;52.102;5.776;2022-09-03T20:08:27;28.40;56.70
36990;DHT22;22898;52.102;5.776;2022-09-03T20:11:20;28.40;57.00
36990;DHT22;22898;52.102;5.776;2022-09-03T20:13:47;28.30;57.20
36990;DHT22;22898;52.102;5.776;2022-09-03T20:16:43;28.20;56.90
36990;DHT22;22898;52.102;5.776;2022-09-03T20:19:40;28.20;57.00
36990;DHT22;22898;52.102;5.776;2022-09-03T20:25:15;28.00;57.20
36990;DHT22;22898;52.102;5.776;2022-09-03T20:33:42;27.90;57.30
36990;DHT22;22898;52.102;5.776;2022-09-03T20:39:25;27.80;57.50
36990;DHT22;22898;52.102;5.776;2022-09-03T20:52:11;27.50;58.00